Time;durP1;ratioP1;P1;durP2;ratioP2;P2;SDS_P1;SDS_P2;PMS_P1;PMS_P2;Temp;Humidity;BMP_temperature;BMP_pressure;BME280_temperature;BME280_humidity;BME280_pressure;Samples;Min_cycle;Max_cycle;Signal;HPM_P1;HPM_P2
2023/10/20 00:04:27;;;;;;;1999.90;999.90;;;;;;;20.06;79.12;98506.81;10552516;28;20592;-61
2023/10/20 00:09:30;;;;;;;1999.90;999.90;;;;;;;19.97;80.11;98514.16;10552463;28;20516;-61
2023/10/20 00:14:32;;;;;;;1999.90;999.90;;;;;;;20.44;77.99;98502.66;10535051;28;20164;-61
2023/10/20 00:19:35;;;;;;;1999.90;999.90;;;;;;;20.67;75.70;98511.00;10552276;28;20052;-61
2023/10/20 00:24:37;;;;;;;1999.90;999.90;;;;;;;20.79;76.42;98511.19;10552759;28;20051;-61
2023/10/20 00:29:40;;;;;;;1999.90;999.90;;;;;;;20.96;75.29;98506.19;10550192;28;20070;-62
2023/10/20 00:34:43;;;;;;;1999.90;999.90;;;;;;;20.31;76.48;98504.31;10545968;28;20061;-61
2023/10/20 00:39:45;;;;;;;1999.90;999.90;;;;;;;20.02;77.27;98497.59;10527785;28;20044;-61
2023/10/20 00:44:47;;;;;;;1999.90;999.90;;;;;;;20.61;76.88;98487.91;10545608;28;20058;-61
2023/10/20 00:49:50;;;;;;;1999.90;999.90;;;;;;;20.76;76.49;98472.53;10545295;28;20055;-61
2023/10/20 00:54:52;;;;;;;1999.90;999.90;;;;;;;20.40;77.30;98460.56;10544584;28;20477;-61
2023/10/20 00:59:55;;;;;;;1999.90;999.90;;;;;;;20.16;79.06;98455.94;10527060;28;20066;-61
2023/10/20 01:04:58;;;;;;;1999.90;999.90;;;;;;;20.75;74.59;98436.34;10544828;28;20058;-61
2023/10/20 01:10:02;;;;;;;1999.90;999.90;;;;;;;20.86;74.82;98445.47;10525854;28;20051;-61
2023/10/20 01:15:07;;;;;;;1999.90;999.90;;;;;;;20.14;78.01;98447.31;10544494;28;20050;-61
2023/10/20 01:20:11;;;;;;;1999.90;999.90;;;;;;;20.94;74.05;98439.91;10526322;28;20044;-61
2023/10/20 01:25:13;;;;;;;1999.90;999.90;;;;;;;20.92;74.85;98428.69;10543408;28;20558;-61
2023/10/20 01:30:15;;;;;;;1999.90;999.90;;;;;;;21.12;72.43;98419.78;10543699;28;20052;-61
2023/10/20 01:35:18;;;;;;;1999.90;999.90;;;;;;;20.80;74.38;98409.13;10543587;28;20056;-61
2023/10/20 01:40:21;;;;;;;1999.90;999.90;;;;;;;19.86;75.72;98393.44;10542624;28;20044;-61
2023/10/20 01:45:24;;;;;;;1999.90;999.90;;;;;;;20.35;75.80;98382.50;10525231;28;20075;-61
2023/10/20 01:50:26;;;;;;;1999.90;999.90;;;;;;;20.73;75.10;98369.25;10542883;28;20052;-62
2023/10/20 01:55:29;;;;;;;1999.90;999.90;;;;;;;20.77;73.33;98365.13;10542135;28;20382;-62
2023/10/20 02:00:31;;;;;;;1999.90;999.90;;;;;;;20.29;75.83;98367.38;10541954;28;20499;-61
2023/10/20 02:05:33;;;;;;;1999.90;999.90;;;;;;;20.63;74.71;98366.25;10542342;28;20051;-61
2023/10/20 02:10:36;;;;;;;1999.90;999.90;;;;;;;20.17;76.32;98346.81;10524015;28;20124;-61
2023/10/20 02:15:44;;;;;;;1999.90;999.90;;;;;;;20.62;73.19;98339.84;10542036;28;20075;-61
2023/10/20 02:20:59;;;;;;;1999.90;999.90;;;;;;;20.49;76.09;98322.13;10541153;28;20050;-62
2023/10/20 02:26:04;;;;;;;1999.90;999.90;;;;;;;20.46;74.14;98311.91;10523657;28;20047;-61
2023/10/20 02:31:14;;;;;;;1999.90;999.90;;;;;;;19.88;78.42;98297.66;10540780;28;20048;-61
2023/10/20 02:36:21;;;;;;;1999.90;999.90;;;;;;;20.85;75.30;98288.81;10523259;28;20062;-61
2023/10/20 02:41:23;;;;;;;1999.90;999.90;;;;;;;19.57;78.31;98279.72;10541071;28;20130;-61
2023/10/20 02:46:25;;;;;;;1999.90;999.90;;;;;;;20.17;77.00;98276.91;10522866;28;20127;-61
2023/10/20 02:51:28;;;;;;;1999.90;999.90;;;;;;;20.49;74.53;98263.66;10540061;28;20484;-61
2023/10/20 02:56:30;;;;;;;1999.90;999.90;;;;;;;19.79;78.99;98251.94;10540057;28;20046;-61
2023/10/20 03:01:33;;;;;;;1999.90;999.90;;;;;;;19.65;78.04;98247.66;10521883;28;20105;-61
2023/10/20 03:06:35;;;;;;;1999.90;999.90;;;;;;;19.85;78.36;98235.19;10540230;28;20058;-61
2023/10/20 03:11:38;;;;;;;1999.90;999.90;;;;;;;19.57;79.43;98214.22;10539519;28;20502;-61
2023/10/20 03:16:42;;;;;;;1999.90;999.90;;;;;;;19.89;77.92;98202.88;10539513;28;20427;-61
2023/10/20 03:21:47;;;;;;;1999.90;999.90;;;;;;;19.78;77.88;98205.16;10539363;28;20059;-61
2023/10/20 03:26:50;;;;;;;1999.90;999.90;;;;;;;19.27;79.77;98185.50;10539819;28;20098;-61
2023/10/20 03:31:53;;;;;;;1999.90;999.90;;;;;;;19.90;77.34;98167.34;10539796;28;20048;-61
2023/10/20 03:36:55;;;;;;;1999.90;999.90;;;;;;;20.31;75.64;98171.38;10539043;28;20101;-62
2023/10/20 03:41:57;;;;;;;1999.90;999.90;;;;;;;19.83;78.11;98172.69;10538945;28;20499;-62
2023/10/20 03:47:00;;;;;;;1999.90;999.90;;;;;;;19.36;80.66;98170.19;10539403;28;20044;-61
2023/10/20 03:52:06;;;;;;;1999.90;999.90;;;;;;;20.18;78.47;98162.47;10539451;28;20048;-61
2023/10/20 03:57:08;;;;;;;1999.90;999.90;;;;;;;19.86;78.85;98154.50;10539368;28;20083;-61
2023/10/20 04:02:11;;;;;;;1999.90;999.90;;;;;;;20.26;76.49;98136.66;10539190;28;20052;-61
2023/10/20 04:07:14;;;;;;;1999.90;999.90;;;;;;;20.20;75.68;98141.81;10525495;28;20139;-61
2023/10/20 04:12:17;;;;;;;1999.90;999.90;;;;;;;20.54;75.82;98110.50;10546317;28;20382;-61
2023/10/20 04:17:19;;;;;;;1999.90;999.90;;;;;;;20.44;76.32;98112.81;10546676;28;20055;-61
2023/10/20 04:22:23;;;;;;;1999.90;999.90;;;;;;;19.61;78.81;98127.84;10545743;28;20477;-61
2023/10/20 04:28:11;;;;;;;1999.90;999.90;;;;;;;19.90;78.21;98122.22;10527832;28;20414;-61
2023/10/20 04:53:51;;;;;;;1999.90;999.90;;;;;;;19.46;79.61;98034.44;10544698;28;20052;-61
2023/10/20 05:04:09;;;;;;;1999.90;999.90;;;;;;;19.70;77.87;98018.78;10544244;28;20019;-61
2023/10/20 05:09:14;;;;;;;1999.90;999.90;;;;;;;19.19;82.20;97997.44;10527829;28;20048;-61
2023/10/20 05:14:17;;;;;;;1999.90;999.90;;;;;;;19.24;79.95;97984.34;10544540;28;20052;-61
2023/10/20 05:19:20;;;;;;;1999.90;999.90;;;;;;;19.45;77.63;97977.91;10543699;28;20051;-61
2023/10/20 05:24:22;;;;;;;1999.90;999.90;;;;;;;19.72;76.94;97972.41;10544050;28;20083;-61
2023/10/20 05:29:25;;;;;;;1999.90;999.90;;;;;;;18.47;81.52;97970.97;10543253;28;20447;-61
2023/10/20 05:34:27;;;;;;;1999.90;999.90;;;;;;;18.63;83.02;97975.00;10525702;28;20044;-61
2023/10/20 05:39:29;;;;;;;1999.90;999.90;;;;;;;18.47;83.86;97955.06;10543393;28;20050;-61
2023/10/20 05:44:32;;;;;;;1999.90;999.90;;;;;;;18.81;79.73;97945.19;10542593;28;20087;-61
2023/10/20 05:49:35;;;;;;;1999.90;999.90;;;;;;;19.18;78.80;97965.81;10542902;28;20040;-61
2023/10/20 05:54:38;;;;;;;1999.90;999.90;;;;;;;19.28;77.69;97979.44;10542120;28;20408;-61
2023/10/20 05:59:41;;;;;;;1999.90;999.90;;;;;;;18.58;80.58;97993.38;10542564;28;20066;-61
2023/10/20 06:04:43;;;;;;;1999.90;999.90;;;;;;;19.10;79.98;97974.84;10541804;28;20051;-61
2023/10/20 06:09:47;;;;;;;1999.90;999.90;;;;;;;19.12;79.19;97972.78;10541533;28;20063;-61
2023/10/20 06:14:49;;;;;;;1999.90;999.90;;;;;;;18.88;81.31;97975.16;10541995;28;20047;-61
2023/10/20 06:19:52;;;;;;;1999.90;999.90;;;;;;;19.15;78.37;97971.53;10523882;28;20075;-61
2023/10/20 06:24:55;;;;;;;1999.90;999.90;;;;;;;19.19;77.69;97954.19;10541663;28;20055;-61
2023/10/20 06:30:07;;;;;;;1999.90;999.90;;;;;;;18.50;80.27;97954.66;10539919;28;20499;-61
2023/10/20 06:35:12;;;;;;;1999.90;999.90;;;;;;;19.30;76.90;97962.28;10540648;28;20044;-61
2023/10/20 06:40:17;;;;;;;1999.90;999.90;;;;;;;19.30;78.19;97980.84;10523527;28;20048;-61
2023/10/20 06:45:19;;;;;;;1999.90;999.90;;;;;;;19.04;78.06;97946.53;10523037;28;20044;-61
2023/10/20 06:50:22;;;;;;;1999.90;999.90;;;;;;;19.08;77.62;97955.66;10522817;28;20085;-61
2023/10/20 06:55:24;;;;;;;1999.90;999.90;;;;;;;18.96;77.40;97949.41;10540199;28;20582;-61
2023/10/20 07:00:47;;;;;;;1999.90;999.90;;;;;;;19.15;77.19;97956.47;10539846;28;20044;-61
2023/10/20 07:05:49;;;;;;;1999.90;999.90;;;;;;;18.51;76.98;97948.34;10540164;28;20048;-61
2023/10/20 07:10:52;;;;;;;1999.90;999.90;;;;;;;19.14;75.70;97940.75;10539473;28;20056;-61
2023/10/20 07:15:56;;;;;;;1999.90;999.90;;;;;;;18.41;78.08;97944.50;10539510;28;20059;-61
2023/10/20 07:20:59;;;;;;;1999.90;999.90;;;;;;;17.94;77.92;97940.13;10500689;22;20058;-63
2023/10/20 07:26:01;;;;;;;1999.90;999.90;;;;;;;17.94;80.08;97939.31;10368062;28;20053;-63
2023/10/20 07:31:14;;;;;;;1999.90;999.90;;;;;;;19.40;74.13;97937.94;10367894;28;20124;-63
2023/10/20 07:36:17;;;;;;;1999.90;999.90;;;;;;;18.50;77.20;97925.53;10351020;28;20058;-63
2023/10/20 07:41:19;;;;;;;1999.90;999.90;;;;;;;18.49;76.47;97926.56;10355289;28;20125;-63
2023/10/20 07:46:22;;;;;;;1999.90;999.90;;;;;;;18.77;76.32;97925.41;10375411;28;20068;-63
2023/10/20 07:51:24;;;;;;;1999.90;999.90;;;;;;;17.81;77.49;97934.81;10374571;28;20398;-63
2023/10/20 07:56:27;;;;;;;1999.90;999.90;;;;;;;18.47;76.79;97936.53;10357211;28;20565;-63
2023/10/20 08:01:29;;;;;;;1999.90;999.90;;;;;;;18.26;76.51;97929.69;10374276;28;20410;-63
2023/10/20 08:06:31;;;;;;;1999.90;999.90;;;;;;;17.21;78.63;97924.19;10356816;28;20057;-63
2023/10/20 08:11:35;;;;;;;1999.90;999.90;;;;;;;17.78;77.84;97920.13;10357249;28;20050;-63
2023/10/20 08:16:38;;;;;;;1999.90;999.90;;;;;;;18.01;78.27;97924.22;10373793;28;20494;-63
2023/10/20 08:21:42;;;;;;;1999.90;999.90;;;;;;;18.18;76.71;97911.34;10356534;28;20050;-63
2023/10/20 08:26:44;;;;;;;1999.90;999.90;;;;;;;17.33;78.54;97917.28;10357009;28;20065;-63
2023/10/20 08:31:47;;;;;;;1999.90;999.90;;;;;;;17.51;77.25;97915.88;10373889;28;20125;-63
2023/10/20 08:36:49;;;;;;;1999.90;999.90;;;;;;;17.83;77.55;97922.16;10356452;28;20086;-63
2023/10/20 08:41:52;;;;;;;1999.90;999.90;;;;;;;17.60;77.18;97907.53;10373589;28;20050;-63
2023/10/20 08:46:55;;;;;;;1999.90;999.90;;;;;;;17.33;79.70;97911.19;10373470;28;20107;-63
2023/10/20 08:51:58;;;;;;;1999.90;999.90;;;;;;;17.75;78.85;97909.97;10371743;28;20049;-63
2023/10/20 08:57:00;;;;;;;1999.90;999.90;;;;;;;17.52;78.52;97905.09;10373130;28;20046;-63
2023/10/20 09:02:03;;;;;;;1999.90;999.90;;;;;;;17.43;80.77;97907.13;10355626;28;20042;-63
2023/10/20 09:07:15;;;;;;;1999.90;999.90;;;;;;;17.81;78.39;97895.91;10372209;28;20046;-63
2023/10/20 09:12:17;;;;;;;1999.90;999.90;;;;;;;17.22;78.56;97892.25;10372734;28;20123;-63
2023/10/20 09:17:22;;;;;;;1999.90;999.90;;;;;;;17.34;79.78;97902.22;10354797;28;20052;-64
2023/10/20 09:22:28;;;;;;;1999.90;999.90;;;;;;;18.32;74.53;97902.34;10371636;28;20529;-64
2023/10/20 09:27:31;;;;;;;1999.90;999.90;;;;;;;17.70;78.26;97906.31;10355031;28;20137;-64
2023/10/20 09:32:34;;;;;;;1999.90;999.90;;;;;;;16.64;80.25;97903.28;10371455;28;20049;-63
2023/10/20 09:37:36;;;;;;;1999.90;999.90;;;;;;;17.26;77.97;97903.22;10371308;28;20129;-64
2023/10/20 09:42:57;;;;;;;1999.90;999.90;;;;;;;18.17;76.13;97899.13;10371763;28;20128;-63
2023/10/20 09:48:17;;;;;;;1999.90;999.90;;;;;;;17.11;76.49;97892.03;10371450;28;20054;-64
2023/10/20 09:53:19;;;;;;;1999.90;999.90;;;;;;;17.52;77.42;97896.34;10353669;28;20058;-64
2023/10/20 09:58:33;;;;;;;1999.90;999.90;;;;;;;18.18;75.07;97895.47;10371300;28;20092;-64
2023/10/20 10:03:42;;;;;;;1999.90;999.90;;;;;;;17.41;77.87;97903.03;10371032;28;20065;-63
2023/10/20 10:08:44;;;;;;;1999.90;999.90;;;;;;;17.54;76.27;97892.47;10370859;28;20053;-64
2023/10/20 10:13:54;;;;;;;1999.90;999.90;;;;;;;17.37;77.96;97891.25;10353841;28;20058;-63
2023/10/20 10:19:07;;;;;;;1999.90;999.90;;;;;;;17.55;78.43;97872.94;10369968;28;20054;-63
2023/10/20 10:24:20;;;;;;;1999.90;999.90;;;;;;;17.82;76.98;97878.22;10352901;28;20058;-64
2023/10/20 10:29:53;;;;;;;1999.90;999.90;;;;;;;17.39;80.36;97878.66;10353497;28;20111;-64
2023/10/20 10:34:56;;;;;;;1999.90;999.90;;;;;;;17.02;80.50;97867.63;10369483;28;20049;-64
2023/10/20 10:40:07;;;;;;;1999.90;999.90;;;;;;;17.44;78.37;97860.34;10369782;28;20050;-64
2023/10/20 10:45:27;;;;;;;1999.90;999.90;;;;;;;17.80;77.92;97845.84;10352468;28;20129;-64
2023/10/20 10:50:30;;;;;;;1999.90;999.90;;;;;;;18.01;76.80;97842.16;10353035;28;20046;-64
2023/10/20 10:55:35;;;;;;;1999.90;999.90;;;;;;;17.81;77.84;97831.59;10352236;28;20050;-64
2023/10/20 11:00:39;;;;;;;1999.90;999.90;;;;;;;16.78;84.52;97837.25;10369341;28;20046;-64
2023/10/20 11:05:41;;;;;;;1999.90;999.90;;;;;;;17.81;78.78;97818.38;10351929;28;20096;-64
2023/10/20 11:10:45;;;;;;;1999.90;999.90;;;;;;;17.21;81.29;97821.06;10351704;28;20061;-63
2023/10/20 11:15:49;;;;;;;1999.90;999.90;;;;;;;18.20;75.50;97808.69;10350715;28;20089;-64
2023/10/20 11:20:53;;;;;;;1999.90;999.90;;;;;;;17.71;79.47;97792.31;10350805;28;20053;-64
2023/10/20 11:25:57;;;;;;;1999.90;999.90;;;;;;;17.36;80.80;97784.66;10351369;28;20099;-63
2023/10/20 11:30:59;;;;;;;1999.90;999.90;;;;;;;16.94;80.12;97770.84;10368460;28;20042;-64
2023/10/20 11:36:04;;;;;;;1999.90;999.90;;;;;;;16.97;81.07;97764.34;10368396;28;20057;-64
2023/10/20 11:41:06;;;;;;;1999.90;999.90;;;;;;;17.12;80.04;97754.38;10368273;28;20131;-64
2023/10/20 11:46:11;;;;;;;1999.90;999.90;;;;;;;16.70;81.48;97748.44;10368167;28;20050;-63
2023/10/20 11:51:14;;;;;;;1999.90;999.90;;;;;;;16.61;81.84;97752.28;10367359;28;20486;-63
2023/10/20 11:56:16;;;;;;;1999.90;999.90;;;;;;;17.46;79.80;97737.44;10350555;28;20049;-63
2023/10/20 12:01:18;;;;;;;1999.90;999.90;;;;;;;17.13;78.70;97732.22;10367801;28;20071;-63
2023/10/20 12:06:21;;;;;;;1999.90;999.90;;;;;;;17.06;78.35;97726.94;10349678;28;20528;-63
2023/10/20 12:11:23;;;;;;;1999.90;999.90;;;;;;;18.01;79.17;97723.06;10366831;28;20487;-63
2023/10/20 12:16:26;;;;;;;1999.90;999.90;;;;;;;17.20;78.75;97719.00;10367369;28;20058;-63
2023/10/20 12:21:29;;;;;;;1999.90;999.90;;;;;;;16.82;81.27;97714.31;10366837;28;20057;-70
2023/10/20 12:26:32;;;;;;;1999.90;999.90;;;;;;;16.71;80.75;97721.03;10368199;28;20502;-63
2023/10/20 12:31:34;;;;;;;1999.90;999.90;;;;;;;17.92;76.07;97713.72;10373868;28;20107;-63
2023/10/20 12:36:39;;;;;;;1999.90;999.90;;;;;;;17.49;77.72;97717.72;10373189;28;20409;-64
2023/10/20 12:41:41;;;;;;;1999.90;999.90;;;;;;;17.73;77.09;97695.03;10357036;28;20137;-64
2023/10/20 12:46:44;;;;;;;1999.90;999.90;;;;;;;17.51;77.89;97693.69;10373284;28;20440;-64
2023/10/20 12:51:46;;;;;;;1999.90;999.90;;;;;;;17.69;77.35;97682.47;10356145;28;20129;-64
2023/10/20 12:56:48;;;;;;;1999.90;999.90;;;;;;;17.29;78.93;97675.44;10373242;28;20052;-64
2023/10/20 13:01:52;;;;;;;1999.90;999.90;;;;;;;17.75;76.80;97682.44;10373014;28;20058;-64
2023/10/20 13:06:54;;;;;;;1999.90;999.90;;;;;;;17.42;77.23;97670.13;10372294;28;20137;-64
2023/10/20 13:12:02;;;;;;;1999.90;999.90;;;;;;;16.82;80.17;97679.97;10372689;28;20061;-64
2023/10/20 13:17:04;;;;;;;1999.90;999.90;;;;;;;17.43;77.48;97677.06;10371889;28;20122;-63
2023/10/20 13:22:07;;;;;;;1999.90;999.90;;;;;;;16.52;80.31;97670.63;10371597;28;20050;-63
2023/10/20 13:27:10;;;;;;;1999.90;999.90;;;;;;;17.71;77.85;97670.63;10338260;28;20494;-63
2023/10/20 13:32:12;;;;;;;1999.90;999.90;;;;;;;16.88;81.21;97682.63;10371441;28;20127;-63
2023/10/20 13:37:15;;;;;;;1999.90;999.90;;;;;;;17.67;78.51;97685.31;10371147;28;20516;-63
2023/10/20 13:42:17;;;;;;;1999.90;999.90;;;;;;;17.40;78.62;97688.03;10354559;28;20057;-63
2023/10/20 13:47:19;;;;;;;1999.90;999.90;;;;;;;17.21;79.90;97694.97;10371945;28;20137;-63
2023/10/20 13:52:22;;;;;;;1999.90;999.90;;;;;;;17.97;75.50;97692.72;10371395;28;20046;-63
2023/10/20 13:57:24;;;;;;;1999.90;999.90;;;;;;;18.00;76.57;97687.00;10371311;28;20053;-63
2023/10/20 14:02:28;;;;;;;1999.90;999.90;;;;;;;17.86;75.74;97702.13;10371660;28;20103;-63
2023/10/20 14:07:31;;;;;;;1999.90;999.90;;;;;;;17.81;77.31;97691.34;10371098;28;20054;-63
2023/10/20 14:12:34;;;;;;;1999.90;999.90;;;;;;;17.85;77.06;97681.16;10370831;28;20081;-63
2023/10/20 14:17:38;;;;;;;1999.90;999.90;;;;;;;16.50;81.19;97703.53;10352662;28;20410;-63
2023/10/20 14:22:40;;;;;;;1999.90;999.90;;;;;;;17.33;78.50;97692.53;10370051;28;20054;-63
2023/10/20 14:27:43;;;;;;;1999.90;999.90;;;;;;;16.86;83.50;97700.53;10352403;28;20050;-63
2023/10/20 14:32:45;;;;;;;1999.90;999.90;;;;;;;16.63;81.20;97711.47;10370284;28;20050;-63
2023/10/20 14:37:47;;;;;;;1999.90;999.90;;;;;;;18.51;74.00;97728.47;10369463;28;20558;-63
2023/10/20 14:42:50;;;;;;;1999.90;999.90;;;;;;;18.21;75.73;97717.66;10369971;28;20045;-63
2023/10/20 14:47:52;;;;;;;1999.90;999.90;;;;;;;18.96;72.06;97730.19;10368872;28;20073;-63
2023/10/20 14:52:55;;;;;;;1999.90;999.90;;;;;;;19.12;70.64;97720.88;10369101;28;20058;-63
2023/10/20 14:58:00;;;;;;;1999.90;999.90;;;;;;;19.16;70.60;97727.38;10369503;28;20053;-63
2023/10/20 15:03:04;;;;;;;1999.90;999.90;;;;;;;19.05;71.22;97728.91;10369390;28;20050;-63
2023/10/20 15:08:07;;;;;;;1999.90;999.90;;;;;;;19.65;69.62;97746.88;10369071;28;20081;-63
2023/10/20 15:13:09;;;;;;;1999.90;999.90;;;;;;;19.53;68.88;97745.19;10351769;28;20132;-63
2023/10/20 15:18:11;;;;;;;1999.90;999.90;;;;;;;19.15;71.54;97746.13;10351703;28;20064;-63
2023/10/20 15:23:14;;;;;;;1999.90;999.90;;;;;;;17.67;77.45;97751.44;10367968;28;20133;-63
2023/10/20 15:28:20;;;;;;;1999.90;999.90;;;;;;;18.20;76.32;97764.47;10367994;28;20057;-63
2023/10/20 15:33:23;;;;;;;1999.90;999.90;;;;;;;18.76;74.08;97767.41;10367885;28;20118;-63
2023/10/20 15:38:27;;;;;;;1999.90;999.90;;;;;;;19.04;72.94;97779.50;10368335;28;20060;-63
2023/10/20 15:43:31;;;;;;;1999.90;999.90;;;;;;;18.64;73.34;97779.75;10368869;28;20137;-63
2023/10/20 15:48:37;;;;;;;1999.90;999.90;;;;;;;18.85;72.05;97779.44;10368018;28;20054;-63
2023/10/20 15:53:39;;;;;;;1999.90;999.90;;;;;;;18.64;72.86;97777.09;10368053;28;20054;-63
2023/10/20 15:58:42;;;;;;;1999.90;999.90;;;;;;;18.71;74.22;97776.03;10350513;28;20045;-64
2023/10/20 16:03:45;;;;;;;1999.90;999.90;;;;;;;18.77;73.78;97784.16;10374030;28;20067;-64
2023/10/20 16:08:47;;;;;;;1999.90;999.90;;;;;;;18.68;73.81;97788.91;10374036;28;20387;-64
2023/10/20 16:13:50;;;;;;;1999.90;999.90;;;;;;;18.89;74.03;97785.91;10357267;28;20103;-64
2023/10/20 16:18:52;;;;;;;1999.90;999.90;;;;;;;18.94;72.33;97790.56;10357067;28;20042;-64
2023/10/20 16:23:55;;;;;;;1999.90;999.90;;;;;;;19.10;72.30;97797.19;10373496;28;20076;-64
2023/10/20 16:28:57;;;;;;;1999.90;999.90;;;;;;;18.53;74.67;97803.25;10340804;28;20046;-64
2023/10/20 16:34:00;;;;;;;1999.90;999.90;;;;;;;19.27;72.09;97810.72;10373371;28;20080;-64
2023/10/20 16:39:04;;;;;;;1999.90;999.90;;;;;;;18.61;73.91;97809.31;10373110;28;20052;-64
2023/10/20 16:44:06;;;;;;;1999.90;999.90;;;;;;;18.78;73.52;97810.44;10374413;28;20060;-64
2023/10/20 16:49:09;;;;;;;1999.90;999.90;;;;;;;18.95;74.23;97818.72;10372839;28;20049;-63
2023/10/20 16:54:14;;;;;;;1999.90;999.90;;;;;;;18.99;75.58;97824.41;10355955;28;20046;-64
2023/10/20 16:59:17;;;;;;;1999.90;999.90;;;;;;;19.05;75.29;97836.81;10355873;28;20052;-64
2023/10/20 17:04:19;;;;;;;1999.90;999.90;;;;;;;18.71;76.85;97834.34;10372578;28;20050;-63
2023/10/20 17:09:22;;;;;;;1999.90;999.90;;;;;;;18.81;76.88;97847.13;10372754;28;20099;-63
2023/10/20 17:14:24;;;;;;;1999.90;999.90;;;;;;;19.02;78.56;97853.94;10371306;28;20050;-64
2023/10/20 17:19:26;;;;;;;1999.90;999.90;;;;;;;18.91;79.02;97859.91;10372499;28;20046;-63
2023/10/20 17:24:29;;;;;;;1999.90;999.90;;;;;;;19.18;78.49;97852.63;10371628;28;20054;-64
2023/10/20 17:29:31;;;;;;;1999.90;999.90;;;;;;;19.49;78.03;97862.34;10372115;28;20057;-64
2023/10/20 17:34:37;;;;;;;1999.90;999.90;;;;;;;19.05;79.82;97869.41;10371340;28;20483;-64
2023/10/20 17:39:39;;;;;;;1999.90;999.90;;;;;;;19.15;80.61;97878.72;10371944;28;20046;-64
2023/10/20 17:44:42;;;;;;;1999.90;999.90;;;;;;;18.83;83.81;97884.03;10371810;28;20061;-64
2023/10/20 17:49:44;;;;;;;1999.90;999.90;;;;;;;19.92;79.59;97892.63;10371019;28;20091;-64
2023/10/20 17:54:46;;;;;;;1999.90;999.90;;;;;;;19.80;81.35;97900.50;10370826;28;20494;-63
2023/10/20 17:59:49;;;;;;;1999.90;999.90;;;;;;;19.84;79.01;97908.84;10370608;28;20052;-64
2023/10/20 18:04:52;;;;;;;1999.90;999.90;;;;;;;19.63;80.97;97910.00;10371128;28;20074;-64
2023/10/20 18:09:54;;;;;;;1999.90;999.90;;;;;;;19.36;79.65;97914.72;10370828;28;20050;-64
2023/10/20 18:14:57;;;;;;;1999.90;999.90;;;;;;;19.67;78.14;97922.63;10370794;28;20054;-64
2023/10/20 18:19:59;;;;;;;1999.90;999.90;;;;;;;19.99;80.04;97921.78;10370368;28;20046;-64
2023/10/20 18:25:02;;;;;;;1999.90;999.90;;;;;;;19.60;81.42;97913.91;10369333;28;20049;-64
2023/10/20 18:30:06;;;;;;;1999.90;999.90;;;;;;;19.79;79.10;97912.16;10370239;28;20064;-64
2023/10/20 18:35:08;;;;;;;1999.90;999.90;;;;;;;19.96;76.16;97917.72;10370229;28;20053;-64
2023/10/20 18:40:11;;;;;;;1999.90;999.90;;;;;;;19.35;78.87;97921.03;10369992;28;20076;-64
2023/10/20 18:45:13;;;;;;;1999.90;999.90;;;;;;;19.41;79.43;97926.28;10352637;28;20084;-64
2023/10/20 18:50:15;;;;;;;1999.90;999.90;;;;;;;19.64;78.40;97935.53;10369662;28;20053;-64
2023/10/20 18:55:19;;;;;;;1999.90;999.90;;;;;;;19.06;82.34;97937.34;10352373;28;20046;-64
2023/10/20 19:00:21;;;;;;;1999.90;999.90;;;;;;;19.21;79.87;97941.53;10368782;28;20474;-64
2023/10/20 19:05:23;;;;;;;1999.90;999.90;;;;;;;18.45;86.82;97962.41;10369290;28;20103;-64
2023/10/20 19:10:26;;;;;;;1999.90;999.90;;;;;;;19.14;79.89;97954.03;10369021;28;20060;-64
2023/10/20 19:15:28;;;;;;;1999.90;999.90;;;;;;;19.55;80.41;97966.84;10368325;28;20169;-63
2023/10/20 19:20:30;;;;;;;1999.90;999.90;;;;;;;19.20;80.53;97977.84;10368069;28;20505;-62
2023/10/20 19:25:33;;;;;;;1999.90;999.90;;;;;;;19.08;81.52;97974.22;10368748;28;20095;-63
2023/10/20 19:30:36;;;;;;;1999.90;999.90;;;;;;;19.05;80.78;97982.63;10367868;28;20054;-63
2023/10/20 19:35:39;;;;;;;1999.90;999.90;;;;;;;19.33;79.67;97992.88;10401135;23;20070;-63
2023/10/20 19:40:41;;;;;;;1999.90;999.90;;;;;;;18.73;79.52;97998.44;10530476;28;20051;-63
2023/10/20 19:45:43;;;;;;;1999.90;999.90;;;;;;;19.08;79.99;98006.88;10548262;28;20047;-63
2023/10/20 19:50:46;;;;;;;1999.90;999.90;;;;;;;18.60;80.79;98030.25;10529985;28;20044;-63
2023/10/20 19:55:48;;;;;;;1999.90;999.90;;;;;;;19.18;79.12;98030.31;10529910;28;20051;-63
2023/10/20 20:00:50;;;;;;;1999.90;999.90;;;;;;;19.03;80.37;98032.38;10547646;28;20044;-63
2023/10/20 20:05:53;;;;;;;1999.90;999.90;;;;;;;18.46;81.84;98045.34;10529644;28;20056;-63
2023/10/20 20:10:56;;;;;;;1999.90;999.90;;;;;;;18.68;81.04;98057.34;10528753;28;20082;-63
2023/10/20 20:16:11;;;;;;;1999.90;999.90;;;;;;;19.28;79.15;98059.00;10546416;28;20488;-63
2023/10/20 20:21:13;;;;;;;1999.90;999.90;;;;;;;18.92;79.14;98071.78;10528961;28;20053;-63
2023/10/20 20:26:19;;;;;;;1999.90;999.90;;;;;;;18.86;79.45;98079.75;10512195;28;20087;-63
2023/10/20 20:31:21;;;;;;;1999.90;999.90;;;;;;;18.89;78.89;98088.09;10546409;28;20052;-63
2023/10/20 20:36:24;;;;;;;1999.90;999.90;;;;;;;19.17;80.19;98086.19;10545770;28;20088;-63
2023/10/20 20:41:26;;;;;;;1999.90;999.90;;;;;;;18.97;80.12;98108.28;10545402;28;20464;-63
2023/10/20 20:46:28;;;;;;;1999.90;999.90;;;;;;;19.28;79.61;98104.94;10543983;28;20048;-63
2023/10/20 20:51:31;;;;;;;1999.90;999.90;;;;;;;19.24;77.88;98116.97;10545558;28;20078;-63
2023/10/20 20:56:33;;;;;;;1999.90;999.90;;;;;;;19.30;77.66;98116.13;10545434;28;20043;-63
2023/10/20 21:01:37;;;;;;;1999.90;999.90;;;;;;;19.46;78.09;98130.75;10545279;28;20044;-63
2023/10/20 21:06:39;;;;;;;1999.90;999.90;;;;;;;18.96;78.77;98130.50;10544580;28;20512;-63
2023/10/20 21:11:41;;;;;;;1999.90;999.90;;;;;;;18.79;79.14;98135.38;10526262;28;20479;-63
2023/10/20 21:16:44;;;;;;;1999.90;999.90;;;;;;;19.15;78.42;98134.16;10544633;28;20101;-63
2023/10/20 21:21:46;;;;;;;1999.90;999.90;;;;;;;19.04;77.61;98140.09;10543759;28;20492;-62
2023/10/20 21:26:49;;;;;;;1999.90;999.90;;;;;;;18.88;78.01;98141.34;10526430;28;20044;-63
2023/10/20 21:31:51;;;;;;;1999.90;999.90;;;;;;;18.33;79.11;98138.88;10525573;28;20047;-63
2023/10/20 21:36:55;;;;;;;1999.90;999.90;;;;;;;19.01;79.18;98153.75;10543072;28;20056;-62
2023/10/20 21:41:57;;;;;;;1999.90;999.90;;;;;;;19.04;79.54;98158.66;10525792;28;20047;-63
2023/10/20 21:46:59;;;;;;;1999.90;999.90;;;;;;;19.16;79.30;98159.63;10542764;28;20478;-63
2023/10/20 21:52:02;;;;;;;1999.90;999.90;;;;;;;19.66;77.54;98157.22;10543147;28;20123;-63
2023/10/20 21:57:05;;;;;;;1999.90;999.90;;;;;;;19.06;78.58;98153.94;10542391;28;20591;-63
2023/10/20 22:02:07;;;;;;;1999.90;999.90;;;;;;;19.33;78.98;98164.47;10541871;28;20458;-63
2023/10/20 22:07:11;;;;;;;1999.90;999.90;;;;;;;19.00;80.63;98163.56;10542628;28;20104;-63
2023/10/20 22:12:14;;;;;;;1999.90;999.90;;;;;;;18.99;76.95;98164.56;10541817;28;20054;-63
2023/10/20 22:17:16;;;;;;;1999.90;999.90;;;;;;;19.25;76.44;98161.03;10541654;28;20412;-63
2023/10/20 22:22:19;;;;;;;1999.90;999.90;;;;;;;19.12;76.93;98172.50;10541430;28;20066;-63
2023/10/20 22:27:21;;;;;;;1999.90;999.90;;;;;;;19.17;77.24;98182.47;10541171;28;20125;-63
2023/10/20 22:32:23;;;;;;;1999.90;999.90;;;;;;;19.08;75.06;98176.59;10522955;28;20077;-63
2023/10/20 22:37:26;;;;;;;1999.90;999.90;;;;;;;18.70;78.06;98185.16;10540835;28;20062;-63
2023/10/20 22:42:28;;;;;;;1999.90;999.90;;;;;;;18.90;75.64;98192.31;10540826;28;20070;-63